Flight Track Log - Related Links

Times and Time Zones

All times are in EDT time to prevent confusion due to time zone crossing. See the SWA1971 flight status page for this flight to view local times or setup timezone preferences in your user account.

Time Position Orientation Groundspeed Altitude Reporting Facility
EDT Latitude Longitude Course Direction KTS MPH feet Rate Location/Type
Tue 08:05:33 PM 37.7500 -122.2833 138° Southeast 200 230 2,400  Level Northern Cal TRACON
Tue 08:06:27 PM 37.7667 -122.3500 288° West 210 242 3,200 1,800 Climbing Northern Cal TRACON
Tue 08:07:33 PM 37.7000 -122.4000 211° Southwest 254 292 6,000 3,075 Climbing Northern Cal TRACON
Tue 08:09:07 PM 37.6072 -122.4803 214° Southwest 280 322 11,400 2,942 Climbing Oakland Center
Tue 08:10:00 PM 37.6452 -122.1329 138° Southeast  Level Estimated
Tue 08:10:08 PM 37.5136 -122.4972 188° South 334 384 13,600  Level Oakland Center
Tue 08:11:09 PM 37.4072 -122.5114 186° South 373 429 16,800 3,098 Climbing Oakland Center
Tue 08:12:10 PM 37.2964 -122.5264 186° South 393 452 19,900 2,656 Climbing Oakland Center
Tue 08:13:11 PM 37.1803 -122.5439 187° South 411 473 22,200 2,439 Climbing Oakland Center
Tue 08:14:13 PM 37.0578 -122.4853 159° South 456 525 24,900 2,439 Climbing Oakland Center
Tue 08:15:14 PM 36.9533 -122.3911 144° Southeast 458 527 27,200 2,115 Climbing Oakland Center
Tue 08:16:15 PM 36.8475 -122.2950 144° Southeast 468 539 29,200 2,066 Climbing Oakland Center
Tue 08:17:16 PM 36.7264 -122.1853 144° Southeast 475 547 31,400 1,967 Climbing Oakland Center
Tue 08:18:17 PM 36.6308 -122.1000 144° Southeast 481 554 33,200 1,918 Climbing Oakland Center
Tue 08:19:18 PM 36.5250 -122.0042 144° Southeast 479 551 35,300 1,869 Climbing Oakland Center
Tue 08:20:19 PM 36.3972 -121.8872 144° Southeast 476 548 37,000 1,512 Climbing Oakland Center
Tue 08:21:21 PM 36.2892 -121.7931 145° Southeast 473 544 38,400 976 Climbing Oakland Center
Tue 08:22:22 PM 36.1839 -121.7008 145° Southeast 466 536 39,000 295 Climbing Oakland Center
Tue 08:23:23 PM 36.0803 -121.6081 144° Southeast 462 532 39,000  Level Oakland Center
Tue 08:24:24 PM 35.9756 -121.5178 145° Southeast 461 531 39,000  Level Oakland Center
Tue 08:25:25 PM 35.8717 -121.4253 144° Southeast 461 531 39,000  Level Oakland Center
Tue 08:26:26 PM 35.7681 -121.3361 145° Southeast 457 526 39,000  Level Oakland Center
Tue 08:27:27 PM 35.6633 -121.2447 145° Southeast 461 531 39,000  Level Oakland Center
Tue 08:28:28 PM 35.5586 -121.1528 144° Southeast 463 533 39,000  Level Oakland Center
Tue 08:29:29 PM 35.4294 -121.0478 146° Southeast 466 536 39,000  Level Oakland Center
Tue 08:30:30 PM 35.3206 -120.9622 147° Southeast 467 537 39,000  Level Oakland Center
Tue 08:31:35 PM 35.2092 -120.8778 148° Southeast 462 532 39,000  Level Los Angeles Center
Tue 08:32:37 PM 35.1014 -120.7936 147° Southeast 459 528 39,000  Level Los Angeles Center
Tue 08:33:39 PM 34.9928 -120.7086 147° Southeast 461 531 39,000  Level Los Angeles Center
Tue 08:34:41 PM 34.8847 -120.6244 147° Southeast 459 528 39,000  Level Los Angeles Center
Tue 08:35:43 PM 34.7617 -120.5286 147° Southeast 461 531 39,000  Level Los Angeles Center
Tue 08:36:45 PM 34.6544 -120.4442 147° Southeast 462 532 39,000  Level Los Angeles Center
Tue 08:37:47 PM 34.5456 -120.3619 148° Southeast 463 533 39,000 -823 Level Los Angeles Center
Tue 08:38:49 PM 34.4397 -120.2811 148° Southeast 455 524 37,300 -2,274 Descending Los Angeles Center
Tue 08:39:51 PM 34.3144 -120.1864 148° Southeast 448 516 34,300 -2,488 Descending Los Angeles Center
Tue 08:40:52 PM 34.2244 -120.0864 137° Southeast 448 516 32,200 -2,098 Descending Los Angeles Center
Tue 08:41:54 PM 34.1614 -119.9569 120° Southeast 449 517 30,000 -2,081 Descending Los Angeles Center
Tue 08:42:56 PM 34.0983 -119.8303 121° Southeast 445 512 27,900 -1,984 Descending Los Angeles Center
Tue 08:43:58 PM 34.0342 -119.7058 122° Southeast 440 506 25,900 -1,984 Descending Los Angeles Center
Tue 08:45:00 PM 33.9733 -119.5850 121° Southeast 430 495 23,800 -2,177 Descending Los Angeles Center
Tue 08:46:02 PM 33.9019 -119.4428 121° Southeast 420 483 21,400 -2,081 Descending Los Angeles Center
Tue 08:47:04 PM 33.8453 -119.3281 121° Southeast 400 460 19,500 -1,790 Descending Los Angeles Center
Tue 08:48:06 PM 33.7892 -119.2183 122° Southeast 384 442 17,700 -1,839 Descending Los Angeles Center
Tue 08:49:08 PM 33.7344 -119.1122 122° Southeast 376 433 15,700 -1,887 Descending Los Angeles Center
Tue 08:50:10 PM 33.6794 -119.0075 122° Southeast 372 428 13,800 -1,968 Descending Los Angeles Center
Tue 08:51:13 PM 33.6169 -118.8864 122° Southeast 360 414 11,600 -1,500 Descending Los Angeles Center
Tue 08:52:14 PM 33.5683 -118.7908 121° Southeast 341 392 10,700 -1,024 Descending Los Angeles Center
Tue 08:53:16 PM 33.5217 -118.7047 123° Southeast 318 366 9,500 -1,355 Descending Los Angeles Center
Tue 08:54:18 PM 33.5169 -118.6083 93° East 305 351 7,900 -1,500 Descending Los Angeles Center
Tue 08:55:20 PM 33.5231 -118.5117 86° East 297 342 6,400 -1,403 Descending Los Angeles Center
Tue 08:56:22 PM 33.5328 -118.3969 84° East 293 337 5,000 -677 Descending Los Angeles Center
Tue 08:57:24 PM 33.5392 -118.3028 85° East 290 334 5,000  Level Los Angeles Center
Tue 08:58:26 PM 33.5483 -118.2097 83° East 287 330 5,000  Level Los Angeles Center
Tue 08:59:28 PM 33.5892 -118.1314 58° Northeast 284 327 5,000  Level Los Angeles Center
Tue 09:00:30 PM 33.6283 -118.0636 55° Northeast 259 298 5,000  Level Los Angeles Center
Tue 09:01:06 PM 33.6500 -118.0167 61° Northeast 241 277 5,000  Level Southern California TRACON
Tue 09:02:06 PM 33.7000 -117.9500 48° Northeast 233 268 5,000 -250 Level Southern California TRACON
Tue 09:03:06 PM 33.7500 -117.9000 40° Northeast 228 262 4,500 -900 Descending Southern California TRACON
Tue 09:04:06 PM 33.8000 -117.8500 40° Northeast 223 257 3,200 -850 Descending Southern California TRACON
Tue 09:05:06 PM 33.8000 -117.8000 90° East 191 220 2,800 -645 Descending Southern California TRACON
Tue 09:06:07 PM 33.7500 -117.8167 195° South 154 177 1,900 -843 Descending Southern California TRACON
Tue 09:07:07 PM 33.7333 -117.8333 220° Southwest 129 148 1,100 -750 Descending Southern California TRACON
Tue 09:08:07 PM 33.7000 -117.8500 203° Southwest 134 154 400 -700 Descending Southern California TRACON

Login

Don't have an account? Register now (free) for customized features, flight alerts, and more!